sensor_id;sensor_type;location;lat;lon;timestamp;P1;durP1;ratioP1;P2;durP2;ratioP2
73940;SDS011;62294;48.554;10.202;2022-08-01T00:00:05;3.53;;;2.90;;
73940;SDS011;62294;48.554;10.202;2022-08-01T00:02:35;3.15;;;2.80;;
73940;SDS011;62294;48.554;10.202;2022-08-01T00:05:03;4.10;;;3.13;;
73940;SDS011;62294;48.554;10.202;2022-08-01T00:07:33;3.90;;;2.90;;
73940;SDS011;62294;48.554;10.202;2022-08-01T00:10:00;3.65;;;2.70;;
73940;SDS011;62294;48.554;10.202;2022-08-01T00:12:27;4.70;;;3.30;;
73940;SDS011;62294;48.554;10.202;2022-08-01T00:14:54;6.00;;;3.15;;
73940;SDS011;62294;48.554;10.202;2022-08-01T00:17:20;4.20;;;2.80;;
73940;SDS011;62294;48.554;10.202;2022-08-01T00:19:47;3.58;;;2.58;;
73940;SDS011;62294;48.554;10.202;2022-08-01T00:22:14;4.40;;;3.05;;
73940;SDS011;62294;48.554;10.202;2022-08-01T00:24:40;3.78;;;2.97;;
73940;SDS011;62294;48.554;10.202;2022-08-01T00:27:07;3.10;;;2.70;;
73940;SDS011;62294;48.554;10.202;2022-08-01T00:29:34;4.43;;;2.85;;
73940;SDS011;62294;48.554;10.202;2022-08-01T00:32:20;5.05;;;2.55;;
73940;SDS011;62294;48.554;10.202;2022-08-01T00:34:47;3.80;;;2.58;;
73940;SDS011;62294;48.554;10.202;2022-08-01T00:37:14;4.40;;;2.63;;
73940;SDS011;62294;48.554;10.202;2022-08-01T00:39:42;3.88;;;2.55;;
73940;SDS011;62294;48.554;10.202;2022-08-01T00:42:09;4.28;;;2.88;;
73940;SDS011;62294;48.554;10.202;2022-08-01T00:44:38;4.65;;;2.70;;
73940;SDS011;62294;48.554;10.202;2022-08-01T00:47:05;3.45;;;2.63;;
73940;SDS011;62294;48.554;10.202;2022-08-01T00:49:31;3.38;;;2.70;;
73940;SDS011;62294;48.554;10.202;2022-08-01T00:51:59;4.45;;;2.58;;
73940;SDS011;62294;48.554;10.202;2022-08-01T00:54:26;4.85;;;2.70;;
73940;SDS011;62294;48.554;10.202;2022-08-01T00:56:53;5.22;;;3.10;;
73940;SDS011;62294;48.554;10.202;2022-08-01T00:59:21;4.43;;;3.10;;
73940;SDS011;62294;48.554;10.202;2022-08-01T01:01:50;3.05;;;2.63;;
73940;SDS011;62294;48.554;10.202;2022-08-01T01:04:18;3.75;;;2.75;;
73940;SDS011;62294;48.554;10.202;2022-08-01T01:09:50;3.80;;;2.30;;
73940;SDS011;62294;48.554;10.202;2022-08-01T01:15:17;5.00;;;2.42;;
73940;SDS011;62294;48.554;10.202;2022-08-01T01:17:53;3.30;;;2.40;;
73940;SDS011;62294;48.554;10.202;2022-08-01T01:20:32;3.03;;;2.30;;
73940;SDS011;62294;48.554;10.202;2022-08-01T01:23:10;3.10;;;2.20;;
73940;SDS011;62294;48.554;10.202;2022-08-01T01:25:51;4.23;;;2.60;;
73940;SDS011;62294;48.554;10.202;2022-08-01T01:28:33;3.80;;;2.67;;
73940;SDS011;62294;48.554;10.202;2022-08-01T01:31:00;4.35;;;2.47;;
73940;SDS011;62294;48.554;10.202;2022-08-01T01:33:28;3.08;;;2.33;;
73940;SDS011;62294;48.554;10.202;2022-08-01T01:35:59;4.10;;;2.40;;
73940;SDS011;62294;48.554;10.202;2022-08-01T01:38:37;5.25;;;2.45;;
73940;SDS011;62294;48.554;10.202;2022-08-01T01:41:08;3.35;;;2.50;;
73940;SDS011;62294;48.554;10.202;2022-08-01T01:43:37;4.93;;;2.35;;
73940;SDS011;62294;48.554;10.202;2022-08-01T01:46:05;2.97;;;2.33;;
73940;SDS011;62294;48.554;10.202;2022-08-01T01:48:35;3.60;;;2.53;;
73940;SDS011;62294;48.554;10.202;2022-08-01T01:51:04;2.83;;;2.15;;
73940;SDS011;62294;48.554;10.202;2022-08-01T01:53:32;3.00;;;2.38;;
73940;SDS011;62294;48.554;10.202;2022-08-01T01:56:00;4.72;;;2.50;;
73940;SDS011;62294;48.554;10.202;2022-08-01T01:58:28;2.58;;;2.30;;
73940;SDS011;62294;48.554;10.202;2022-08-01T02:00:58;3.45;;;2.40;;
73940;SDS011;62294;48.554;10.202;2022-08-01T02:03:28;3.92;;;2.42;;
73940;SDS011;62294;48.554;10.202;2022-08-01T02:05:57;4.35;;;2.38;;
73940;SDS011;62294;48.554;10.202;2022-08-01T02:08:25;2.90;;;2.38;;
73940;SDS011;62294;48.554;10.202;2022-08-01T02:10:56;3.95;;;2.50;;
73940;SDS011;62294;48.554;10.202;2022-08-01T02:13:44;3.05;;;2.40;;
73940;SDS011;62294;48.554;10.202;2022-08-01T02:16:25;4.40;;;2.67;;
73940;SDS011;62294;48.554;10.202;2022-08-01T02:18:55;5.00;;;2.20;;
73940;SDS011;62294;48.554;10.202;2022-08-01T02:24:35;6.95;;;2.70;;
73940;SDS011;62294;48.554;10.202;2022-08-01T02:27:06;5.93;;;2.70;;
73940;SDS011;62294;48.554;10.202;2022-08-01T02:29:46;4.05;;;2.28;;
73940;SDS011;62294;48.554;10.202;2022-08-01T02:35:25;3.40;;;2.50;;
73940;SDS011;62294;48.554;10.202;2022-08-01T02:37:55;4.65;;;2.30;;
73940;SDS011;62294;48.554;10.202;2022-08-01T02:40:23;3.33;;;2.53;;
73940;SDS011;62294;48.554;10.202;2022-08-01T02:42:52;2.92;;;2.28;;
73940;SDS011;62294;48.554;10.202;2022-08-01T02:45:22;4.93;;;3.05;;
73940;SDS011;62294;48.554;10.202;2022-08-01T02:47:51;3.00;;;2.00;;
73940;SDS011;62294;48.554;10.202;2022-08-01T02:50:22;3.85;;;2.00;;
73940;SDS011;62294;48.554;10.202;2022-08-01T02:52:50;5.60;;;2.53;;
73940;SDS011;62294;48.554;10.202;2022-08-01T02:55:18;3.13;;;2.10;;
73940;SDS011;62294;48.554;10.202;2022-08-01T02:57:46;4.10;;;2.72;;
73940;SDS011;62294;48.554;10.202;2022-08-01T03:00:17;4.05;;;2.28;;
73940;SDS011;62294;48.554;10.202;2022-08-01T03:02:45;4.05;;;2.30;;
73940;SDS011;62294;48.554;10.202;2022-08-01T03:05:14;4.93;;;2.70;;
73940;SDS011;62294;48.554;10.202;2022-08-01T03:07:43;4.03;;;2.17;;
73940;SDS011;62294;48.554;10.202;2022-08-01T03:10:13;6.53;;;2.50;;
73940;SDS011;62294;48.554;10.202;2022-08-01T03:12:42;4.32;;;2.45;;
73940;SDS011;62294;48.554;10.202;2022-08-01T03:15:13;5.38;;;2.60;;
73940;SDS011;62294;48.554;10.202;2022-08-01T03:17:43;3.00;;;2.10;;
73940;SDS011;62294;48.554;10.202;2022-08-01T03:20:13;3.47;;;2.42;;
73940;SDS011;62294;48.554;10.202;2022-08-01T03:22:41;4.88;;;2.38;;
73940;SDS011;62294;48.554;10.202;2022-08-01T03:25:10;3.60;;;2.03;;
73940;SDS011;62294;48.554;10.202;2022-08-01T03:27:39;4.18;;;2.42;;
73940;SDS011;62294;48.554;10.202;2022-08-01T03:30:14;4.88;;;2.40;;
73940;SDS011;62294;48.554;10.202;2022-08-01T03:32:41;3.88;;;2.30;;
73940;SDS011;62294;48.554;10.202;2022-08-01T03:35:08;7.68;;;3.20;;
73940;SDS011;62294;48.554;10.202;2022-08-01T03:37:45;5.97;;;2.90;;
73940;SDS011;62294;48.554;10.202;2022-08-01T03:45:55;3.97;;;2.42;;
73940;SDS011;62294;48.554;10.202;2022-08-01T03:50:58;3.78;;;2.30;;
73940;SDS011;62294;48.554;10.202;2022-08-01T03:53:26;3.78;;;2.63;;
73940;SDS011;62294;48.554;10.202;2022-08-01T03:55:56;5.20;;;2.33;;
73940;SDS011;62294;48.554;10.202;2022-08-01T03:58:26;6.95;;;2.92;;
73940;SDS011;62294;48.554;10.202;2022-08-01T04:00:54;4.80;;;2.75;;
73940;SDS011;62294;48.554;10.202;2022-08-01T04:03:21;3.83;;;2.33;;
73940;SDS011;62294;48.554;10.202;2022-08-01T04:05:49;3.97;;;2.65;;
73940;SDS011;62294;48.554;10.202;2022-08-01T04:08:16;4.88;;;2.75;;
73940;SDS011;62294;48.554;10.202;2022-08-01T04:10:43;2.88;;;2.55;;
73940;SDS011;62294;48.554;10.202;2022-08-01T04:13:09;3.42;;;2.30;;
73940;SDS011;62294;48.554;10.202;2022-08-01T04:15:36;3.85;;;2.53;;
73940;SDS011;62294;48.554;10.202;2022-08-01T04:18:03;6.22;;;2.72;;
73940;SDS011;62294;48.554;10.202;2022-08-01T04:20:29;3.67;;;2.33;;
73940;SDS011;62294;48.554;10.202;2022-08-01T04:22:57;3.78;;;2.65;;
73940;SDS011;62294;48.554;10.202;2022-08-01T04:25:28;3.97;;;2.88;;
73940;SDS011;62294;48.554;10.202;2022-08-01T04:27:59;3.53;;;2.35;;
73940;SDS011;62294;48.554;10.202;2022-08-01T04:30:31;4.75;;;2.47;;
73940;SDS011;62294;48.554;10.202;2022-08-01T04:33:00;5.22;;;2.70;;
73940;SDS011;62294;48.554;10.202;2022-08-01T04:35:31;3.70;;;2.30;;
73940;SDS011;62294;48.554;10.202;2022-08-01T04:38:21;5.28;;;2.83;;
73940;SDS011;62294;48.554;10.202;2022-08-01T04:40:53;4.43;;;2.75;;
73940;SDS011;62294;48.554;10.202;2022-08-01T04:43:21;4.63;;;2.47;;
73940;SDS011;62294;48.554;10.202;2022-08-01T04:45:48;4.18;;;2.67;;
73940;SDS011;62294;48.554;10.202;2022-08-01T04:48:17;4.95;;;2.30;;
73940;SDS011;62294;48.554;10.202;2022-08-01T04:50:48;3.25;;;2.50;;
73940;SDS011;62294;48.554;10.202;2022-08-01T04:53:15;3.88;;;2.55;;
73940;SDS011;62294;48.554;10.202;2022-08-01T04:55:43;3.67;;;2.53;;
73940;SDS011;62294;48.554;10.202;2022-08-01T04:58:10;5.85;;;2.78;;
73940;SDS011;62294;48.554;10.202;2022-08-01T05:00:42;2.97;;;2.40;;
73940;SDS011;62294;48.554;10.202;2022-08-01T05:03:09;3.28;;;2.47;;
73940;SDS011;62294;48.554;10.202;2022-08-01T05:05:36;4.30;;;2.50;;
73940;SDS011;62294;48.554;10.202;2022-08-01T05:08:02;4.50;;;2.60;;
73940;SDS011;62294;48.554;10.202;2022-08-01T05:10:29;6.28;;;3.20;;
73940;SDS011;62294;48.554;10.202;2022-08-01T05:12:57;5.10;;;3.00;;
73940;SDS011;62294;48.554;10.202;2022-08-01T05:15:23;4.55;;;2.47;;
73940;SDS011;62294;48.554;10.202;2022-08-01T05:17:50;3.35;;;3.00;;
73940;SDS011;62294;48.554;10.202;2022-08-01T05:20:17;5.25;;;2.53;;
73940;SDS011;62294;48.554;10.202;2022-08-01T05:22:43;3.92;;;2.67;;
73940;SDS011;62294;48.554;10.202;2022-08-01T05:25:10;4.22;;;2.63;;
73940;SDS011;62294;48.554;10.202;2022-08-01T05:27:43;5.18;;;2.58;;
73940;SDS011;62294;48.554;10.202;2022-08-01T05:30:10;4.70;;;2.38;;
73940;SDS011;62294;48.554;10.202;2022-08-01T05:32:37;6.30;;;2.90;;
73940;SDS011;62294;48.554;10.202;2022-08-01T05:35:04;4.53;;;3.05;;
73940;SDS011;62294;48.554;10.202;2022-08-01T05:37:31;3.33;;;2.45;;
73940;SDS011;62294;48.554;10.202;2022-08-01T05:39:58;3.60;;;2.33;;
73940;SDS011;62294;48.554;10.202;2022-08-01T05:42:24;7.13;;;2.85;;
73940;SDS011;62294;48.554;10.202;2022-08-01T05:44:50;3.67;;;2.63;;
73940;SDS011;62294;48.554;10.202;2022-08-01T05:47:17;3.15;;;2.40;;
73940;SDS011;62294;48.554;10.202;2022-08-01T05:49:44;8.07;;;2.90;;
73940;SDS011;62294;48.554;10.202;2022-08-01T05:52:11;4.57;;;2.63;;
73940;SDS011;62294;48.554;10.202;2022-08-01T05:54:38;6.03;;;2.45;;
73940;SDS011;62294;48.554;10.202;2022-08-01T05:57:05;4.07;;;2.38;;
73940;SDS011;62294;48.554;10.202;2022-08-01T05:59:32;5.82;;;2.40;;
73940;SDS011;62294;48.554;10.202;2022-08-01T06:01:58;3.55;;;1.83;;
73940;SDS011;62294;48.554;10.202;2022-08-01T06:04:26;3.65;;;2.28;;
73940;SDS011;62294;48.554;10.202;2022-08-01T06:06:53;3.13;;;2.10;;
73940;SDS011;62294;48.554;10.202;2022-08-01T06:09:19;3.80;;;2.13;;
73940;SDS011;62294;48.554;10.202;2022-08-01T06:11:46;2.88;;;2.17;;
73940;SDS011;62294;48.554;10.202;2022-08-01T06:14:13;4.60;;;2.00;;
73940;SDS011;62294;48.554;10.202;2022-08-01T06:16:39;3.05;;;1.95;;
73940;SDS011;62294;48.554;10.202;2022-08-01T06:19:05;5.50;;;2.00;;
73940;SDS011;62294;48.554;10.202;2022-08-01T06:21:32;3.10;;;1.90;;
73940;SDS011;62294;48.554;10.202;2022-08-01T06:23:58;4.40;;;1.60;;
73940;SDS011;62294;48.554;10.202;2022-08-01T06:26:24;1.92;;;1.73;;
73940;SDS011;62294;48.554;10.202;2022-08-01T06:28:51;4.07;;;2.17;;
73940;SDS011;62294;48.554;10.202;2022-08-01T06:31:17;2.15;;;1.80;;
73940;SDS011;62294;48.554;10.202;2022-08-01T06:33:44;3.60;;;1.90;;
73940;SDS011;62294;48.554;10.202;2022-08-01T06:36:11;2.55;;;1.80;;
73940;SDS011;62294;48.554;10.202;2022-08-01T06:38:38;2.65;;;1.67;;
73940;SDS011;62294;48.554;10.202;2022-08-01T06:41:04;2.72;;;1.70;;
73940;SDS011;62294;48.554;10.202;2022-08-01T06:43:30;2.80;;;1.52;;
73940;SDS011;62294;48.554;10.202;2022-08-01T06:45:57;2.55;;;1.77;;
73940;SDS011;62294;48.554;10.202;2022-08-01T06:48:24;2.83;;;1.65;;
73940;SDS011;62294;48.554;10.202;2022-08-01T06:50:50;3.72;;;1.80;;
73940;SDS011;62294;48.554;10.202;2022-08-01T06:53:37;2.55;;;1.70;;
73940;SDS011;62294;48.554;10.202;2022-08-01T06:56:05;1.58;;;1.48;;
73940;SDS011;62294;48.554;10.202;2022-08-01T06:58:33;2.38;;;1.50;;
73940;SDS011;62294;48.554;10.202;2022-08-01T07:01:00;3.25;;;1.67;;
73940;SDS011;62294;48.554;10.202;2022-08-01T07:03:30;1.98;;;1.55;;
73940;SDS011;62294;48.554;10.202;2022-08-01T07:06:17;4.00;;;1.70;;
73940;SDS011;62294;48.554;10.202;2022-08-01T07:08:43;2.58;;;1.45;;
73940;SDS011;62294;48.554;10.202;2022-08-01T07:11:10;2.05;;;1.40;;
73940;SDS011;62294;48.554;10.202;2022-08-01T07:13:36;2.58;;;1.40;;
73940;SDS011;62294;48.554;10.202;2022-08-01T07:16:11;2.67;;;1.48;;
73940;SDS011;62294;48.554;10.202;2022-08-01T07:18:38;4.07;;;1.50;;
73940;SDS011;62294;48.554;10.202;2022-08-01T07:21:05;2.58;;;1.02;;
73940;SDS011;62294;48.554;10.202;2022-08-01T07:23:41;1.90;;;1.20;;
73940;SDS011;62294;48.554;10.202;2022-08-01T07:26:11;2.22;;;1.10;;
73940;SDS011;62294;48.554;10.202;2022-08-01T07:28:39;1.08;;;0.98;;
73940;SDS011;62294;48.554;10.202;2022-08-01T07:31:09;1.55;;;1.10;;
73940;SDS011;62294;48.554;10.202;2022-08-01T07:33:36;1.13;;;1.08;;
73940;SDS011;62294;48.554;10.202;2022-08-01T07:36:15;1.75;;;1.25;;
73940;SDS011;62294;48.554;10.202;2022-08-01T07:38:42;1.42;;;0.90;;
73940;SDS011;62294;48.554;10.202;2022-08-01T07:41:09;1.35;;;0.80;;
73940;SDS011;62294;48.554;10.202;2022-08-01T07:43:36;1.10;;;1.00;;
73940;SDS011;62294;48.554;10.202;2022-08-01T07:46:03;1.48;;;1.10;;
73940;SDS011;62294;48.554;10.202;2022-08-01T07:48:30;1.67;;;1.17;;
73940;SDS011;62294;48.554;10.202;2022-08-01T07:50:57;2.45;;;1.40;;
73940;SDS011;62294;48.554;10.202;2022-08-01T07:53:24;1.88;;;1.20;;
73940;SDS011;62294;48.554;10.202;2022-08-01T07:55:50;2.92;;;1.10;;
73940;SDS011;62294;48.554;10.202;2022-08-01T07:58:17;1.67;;;1.17;;
73940;SDS011;62294;48.554;10.202;2022-08-01T08:00:44;3.05;;;1.30;;
73940;SDS011;62294;48.554;10.202;2022-08-01T08:03:10;1.20;;;1.10;;
73940;SDS011;62294;48.554;10.202;2022-08-01T08:05:37;2.05;;;1.13;;
73940;SDS011;62294;48.554;10.202;2022-08-01T08:08:24;2.22;;;1.30;;
73940;SDS011;62294;48.554;10.202;2022-08-01T08:10:50;2.95;;;1.23;;
73940;SDS011;62294;48.554;10.202;2022-08-01T08:13:17;2.80;;;1.25;;
73940;SDS011;62294;48.554;10.202;2022-08-01T08:15:45;2.75;;;1.38;;
73940;SDS011;62294;48.554;10.202;2022-08-01T08:18:14;2.78;;;1.30;;
73940;SDS011;62294;48.554;10.202;2022-08-01T08:20:40;1.38;;;1.10;;
73940;SDS011;62294;48.554;10.202;2022-08-01T08:23:07;2.95;;;1.20;;
73940;SDS011;62294;48.554;10.202;2022-08-01T08:26:09;2.42;;;1.40;;
73940;SDS011;62294;48.554;10.202;2022-08-01T08:28:35;2.33;;;1.40;;
73940;SDS011;62294;48.554;10.202;2022-08-01T08:31:02;3.17;;;1.63;;
73940;SDS011;62294;48.554;10.202;2022-08-01T08:33:29;2.60;;;1.52;;
73940;SDS011;62294;48.554;10.202;2022-08-01T08:35:55;1.75;;;1.10;;
73940;SDS011;62294;48.554;10.202;2022-08-01T08:38:22;1.73;;;1.30;;
73940;SDS011;62294;48.554;10.202;2022-08-01T08:40:55;1.73;;;1.17;;
73940;SDS011;62294;48.554;10.202;2022-08-01T08:43:23;4.00;;;1.17;;
73940;SDS011;62294;48.554;10.202;2022-08-01T08:45:50;2.42;;;1.45;;
73940;SDS011;62294;48.554;10.202;2022-08-01T08:48:25;1.85;;;1.30;;
73940;SDS011;62294;48.554;10.202;2022-08-01T08:50:53;2.15;;;1.50;;
73940;SDS011;62294;48.554;10.202;2022-08-01T08:53:21;2.65;;;1.50;;
73940;SDS011;62294;48.554;10.202;2022-08-01T08:55:48;2.28;;;1.30;;
73940;SDS011;62294;48.554;10.202;2022-08-01T08:58:21;2.67;;;1.38;;
73940;SDS011;62294;48.554;10.202;2022-08-01T09:00:56;1.92;;;1.30;;
73940;SDS011;62294;48.554;10.202;2022-08-01T09:03:23;4.80;;;1.67;;
73940;SDS011;62294;48.554;10.202;2022-08-01T09:05:50;1.70;;;1.23;;
73940;SDS011;62294;48.554;10.202;2022-08-01T09:08:16;3.25;;;1.50;;
73940;SDS011;62294;48.554;10.202;2022-08-01T09:10:43;1.98;;;1.50;;
73940;SDS011;62294;48.554;10.202;2022-08-01T09:13:11;1.75;;;1.55;;
73940;SDS011;62294;48.554;10.202;2022-08-01T09:15:43;2.10;;;1.60;;
73940;SDS011;62294;48.554;10.202;2022-08-01T09:21:12;2.28;;;1.70;;
73940;SDS011;62294;48.554;10.202;2022-08-01T09:23:48;1.67;;;1.40;;
73940;SDS011;62294;48.554;10.202;2022-08-01T09:26:21;2.05;;;1.50;;
73940;SDS011;62294;48.554;10.202;2022-08-01T09:28:56;3.60;;;1.50;;
73940;SDS011;62294;48.554;10.202;2022-08-01T09:31:23;1.83;;;1.48;;
73940;SDS011;62294;48.554;10.202;2022-08-01T09:34:03;4.05;;;1.65;;
73940;SDS011;62294;48.554;10.202;2022-08-01T09:37:04;1.80;;;1.52;;
73940;SDS011;62294;48.554;10.202;2022-08-01T09:41:55;3.33;;;1.70;;
73940;SDS011;62294;48.554;10.202;2022-08-01T09:44:43;3.20;;;1.45;;
73940;SDS011;62294;48.554;10.202;2022-08-01T09:47:20;3.35;;;1.90;;
73940;SDS011;62294;48.554;10.202;2022-08-01T09:49:54;2.53;;;1.58;;
73940;SDS011;62294;48.554;10.202;2022-08-01T09:52:25;1.95;;;1.60;;
73940;SDS011;62294;48.554;10.202;2022-08-01T09:54:58;3.10;;;1.60;;
73940;SDS011;62294;48.554;10.202;2022-08-01T09:57:27;3.13;;;1.60;;
73940;SDS011;62294;48.554;10.202;2022-08-01T09:59:57;3.42;;;1.70;;
73940;SDS011;62294;48.554;10.202;2022-08-01T10:05:06;3.53;;;1.60;;
73940;SDS011;62294;48.554;10.202;2022-08-01T10:07:35;3.20;;;1.67;;
73940;SDS011;62294;48.554;10.202;2022-08-01T10:10:12;3.13;;;1.80;;
73940;SDS011;62294;48.554;10.202;2022-08-01T10:12:42;2.10;;;1.60;;
73940;SDS011;62294;48.554;10.202;2022-08-01T10:15:10;4.50;;;1.60;;
73940;SDS011;62294;48.554;10.202;2022-08-01T10:17:40;2.35;;;1.60;;
73940;SDS011;62294;48.554;10.202;2022-08-01T10:20:17;1.70;;;1.50;;
73940;SDS011;62294;48.554;10.202;2022-08-01T10:22:58;2.20;;;1.67;;
73940;SDS011;62294;48.554;10.202;2022-08-01T10:25:28;1.50;;;1.40;;
73940;SDS011;62294;48.554;10.202;2022-08-01T10:28:18;4.45;;;1.77;;
73940;SDS011;62294;48.554;10.202;2022-08-01T10:30:49;3.33;;;1.67;;
73940;SDS011;62294;48.554;10.202;2022-08-01T10:33:17;1.80;;;1.42;;
73940;SDS011;62294;48.554;10.202;2022-08-01T10:36:05;2.28;;;1.85;;
73940;SDS011;62294;48.554;10.202;2022-08-01T10:38:34;2.92;;;1.40;;
73940;SDS011;62294;48.554;10.202;2022-08-01T10:41:03;1.45;;;1.35;;
73940;SDS011;62294;48.554;10.202;2022-08-01T10:43:33;3.78;;;1.65;;
73940;SDS011;62294;48.554;10.202;2022-08-01T10:46:00;1.80;;;1.60;;
73940;SDS011;62294;48.554;10.202;2022-08-01T10:48:32;3.72;;;1.90;;
73940;SDS011;62294;48.554;10.202;2022-08-01T10:51:03;3.03;;;1.75;;
73940;SDS011;62294;48.554;10.202;2022-08-01T10:53:46;2.65;;;1.60;;
73940;SDS011;62294;48.554;10.202;2022-08-01T10:56:20;2.42;;;1.90;;
73940;SDS011;62294;48.554;10.202;2022-08-01T10:58:55;1.90;;;1.70;;
73940;SDS011;62294;48.554;10.202;2022-08-01T11:01:36;2.28;;;1.50;;
73940;SDS011;62294;48.554;10.202;2022-08-01T11:04:09;2.65;;;1.80;;
73940;SDS011;62294;48.554;10.202;2022-08-01T11:06:45;2.75;;;1.85;;
73940;SDS011;62294;48.554;10.202;2022-08-01T11:09:23;3.88;;;1.70;;
73940;SDS011;62294;48.554;10.202;2022-08-01T11:15:22;2.08;;;1.50;;
73940;SDS011;62294;48.554;10.202;2022-08-01T11:17:54;2.75;;;1.60;;
73940;SDS011;62294;48.554;10.202;2022-08-01T11:20:22;2.53;;;1.40;;
73940;SDS011;62294;48.554;10.202;2022-08-01T11:28:24;1.98;;;1.58;;
73940;SDS011;62294;48.554;10.202;2022-08-01T11:31:24;5.80;;;1.60;;
73940;SDS011;62294;48.554;10.202;2022-08-01T11:33:48;2.10;;;1.58;;
73940;SDS011;62294;48.554;10.202;2022-08-01T11:36:17;2.70;;;1.50;;
73940;SDS011;62294;48.554;10.202;2022-08-01T11:41:39;3.25;;;1.70;;
73940;SDS011;62294;48.554;10.202;2022-08-01T11:44:07;2.30;;;1.90;;
73940;SDS011;62294;48.554;10.202;2022-08-01T11:46:46;5.32;;;2.08;;
73940;SDS011;62294;48.554;10.202;2022-08-01T11:51:59;2.10;;;1.85;;
73940;SDS011;62294;48.554;10.202;2022-08-01T11:54:31;3.15;;;2.03;;
73940;SDS011;62294;48.554;10.202;2022-08-01T11:57:06;2.40;;;1.90;;
73940;SDS011;62294;48.554;10.202;2022-08-01T11:59:39;2.40;;;1.88;;
73940;SDS011;62294;48.554;10.202;2022-08-01T12:02:30;2.95;;;1.95;;
73940;SDS011;62294;48.554;10.202;2022-08-01T12:05:01;4.40;;;2.00;;
73940;SDS011;62294;48.554;10.202;2022-08-01T12:07:34;2.90;;;2.05;;
73940;SDS011;62294;48.554;10.202;2022-08-01T12:12:33;2.25;;;2.00;;
73940;SDS011;62294;48.554;10.202;2022-08-01T12:15:05;2.63;;;1.83;;
73940;SDS011;62294;48.554;10.202;2022-08-01T12:17:36;2.17;;;1.85;;
73940;SDS011;62294;48.554;10.202;2022-08-01T12:20:14;2.90;;;2.00;;
73940;SDS011;62294;48.554;10.202;2022-08-01T12:22:45;3.80;;;2.05;;
73940;SDS011;62294;48.554;10.202;2022-08-01T12:25:13;3.67;;;2.13;;
73940;SDS011;62294;48.554;10.202;2022-08-01T12:27:44;2.17;;;1.83;;
73940;SDS011;62294;48.554;10.202;2022-08-01T12:30:12;2.90;;;2.13;;
73940;SDS011;62294;48.554;10.202;2022-08-01T12:32:41;3.13;;;1.83;;
73940;SDS011;62294;48.554;10.202;2022-08-01T12:35:11;4.05;;;2.00;;
73940;SDS011;62294;48.554;10.202;2022-08-01T12:37:44;3.92;;;1.83;;
73940;SDS011;62294;48.554;10.202;2022-08-01T12:40:19;3.53;;;2.08;;
73940;SDS011;62294;48.554;10.202;2022-08-01T12:42:47;5.28;;;2.20;;
73940;SDS011;62294;48.554;10.202;2022-08-01T12:45:17;3.45;;;2.10;;
73940;SDS011;62294;48.554;10.202;2022-08-01T12:47:46;4.53;;;2.30;;
73940;SDS011;62294;48.554;10.202;2022-08-01T12:50:14;3.30;;;2.13;;
73940;SDS011;62294;48.554;10.202;2022-08-01T12:52:43;4.55;;;2.22;;
73940;SDS011;62294;48.554;10.202;2022-08-01T12:55:14;3.40;;;2.22;;
73940;SDS011;62294;48.554;10.202;2022-08-01T12:58:06;3.88;;;2.17;;
73940;SDS011;62294;48.554;10.202;2022-08-01T13:00:41;4.97;;;2.50;;
73940;SDS011;62294;48.554;10.202;2022-08-01T13:03:13;3.22;;;2.13;;
73940;SDS011;62294;48.554;10.202;2022-08-01T13:08:09;3.38;;;2.47;;
73940;SDS011;62294;48.554;10.202;2022-08-01T13:10:39;3.38;;;2.22;;
73940;SDS011;62294;48.554;10.202;2022-08-01T13:13:08;3.97;;;2.50;;
73940;SDS011;62294;48.554;10.202;2022-08-01T13:15:36;4.07;;;2.10;;
73940;SDS011;62294;48.554;10.202;2022-08-01T13:23:38;4.30;;;2.20;;
73940;SDS011;62294;48.554;10.202;2022-08-01T13:29:13;3.30;;;2.30;;
73940;SDS011;62294;48.554;10.202;2022-08-01T13:31:41;2.65;;;2.10;;
73940;SDS011;62294;48.554;10.202;2022-08-01T13:34:08;4.05;;;2.20;;
73940;SDS011;62294;48.554;10.202;2022-08-01T13:36:36;3.40;;;2.42;;
73940;SDS011;62294;48.554;10.202;2022-08-01T13:39:04;3.55;;;1.88;;
73940;SDS011;62294;48.554;10.202;2022-08-01T13:41:49;3.72;;;1.77;;
73940;SDS011;62294;48.554;10.202;2022-08-01T13:44:16;2.53;;;2.03;;
73940;SDS011;62294;48.554;10.202;2022-08-01T13:46:43;3.20;;;2.10;;
73940;SDS011;62294;48.554;10.202;2022-08-01T13:49:15;3.60;;;2.40;;
73940;SDS011;62294;48.554;10.202;2022-08-01T13:51:42;2.90;;;2.38;;
73940;SDS011;62294;48.554;10.202;2022-08-01T13:54:08;4.07;;;2.70;;
73940;SDS011;62294;48.554;10.202;2022-08-01T13:56:35;3.97;;;2.58;;
73940;SDS011;62294;48.554;10.202;2022-08-01T13:59:02;3.40;;;2.80;;
73940;SDS011;62294;48.554;10.202;2022-08-01T14:01:29;4.50;;;2.78;;
73940;SDS011;62294;48.554;10.202;2022-08-01T14:03:59;4.30;;;2.88;;
73940;SDS011;62294;48.554;10.202;2022-08-01T14:06:27;3.95;;;2.70;;
73940;SDS011;62294;48.554;10.202;2022-08-01T14:08:53;3.13;;;2.38;;
73940;SDS011;62294;48.554;10.202;2022-08-01T14:11:20;4.25;;;2.42;;
73940;SDS011;62294;48.554;10.202;2022-08-01T14:13:47;3.67;;;2.35;;
73940;SDS011;62294;48.554;10.202;2022-08-01T14:16:14;5.47;;;2.70;;
73940;SDS011;62294;48.554;10.202;2022-08-01T14:18:42;3.53;;;2.35;;
73940;SDS011;62294;48.554;10.202;2022-08-01T14:21:09;4.65;;;2.80;;
73940;SDS011;62294;48.554;10.202;2022-08-01T14:23:36;3.17;;;2.60;;
73940;SDS011;62294;48.554;10.202;2022-08-01T14:26:02;3.97;;;2.70;;
73940;SDS011;62294;48.554;10.202;2022-08-01T14:28:37;3.10;;;2.60;;
73940;SDS011;62294;48.554;10.202;2022-08-01T14:31:05;3.45;;;2.28;;
73940;SDS011;62294;48.554;10.202;2022-08-01T14:33:35;2.70;;;2.30;;
73940;SDS011;62294;48.554;10.202;2022-08-01T14:36:02;2.25;;;1.88;;
73940;SDS011;62294;48.554;10.202;2022-08-01T14:38:49;2.55;;;1.88;;
73940;SDS011;62294;48.554;10.202;2022-08-01T14:41:16;3.17;;;2.08;;
73940;SDS011;62294;48.554;10.202;2022-08-01T14:43:42;3.40;;;2.10;;
73940;SDS011;62294;48.554;10.202;2022-08-01T14:46:09;2.70;;;2.00;;
73940;SDS011;62294;48.554;10.202;2022-08-01T14:48:36;3.35;;;2.20;;
73940;SDS011;62294;48.554;10.202;2022-08-01T14:51:03;2.85;;;2.03;;
73940;SDS011;62294;48.554;10.202;2022-08-01T14:53:30;2.85;;;1.92;;
73940;SDS011;62294;48.554;10.202;2022-08-01T14:56:00;2.95;;;2.10;;
73940;SDS011;62294;48.554;10.202;2022-08-01T14:58:27;2.53;;;2.20;;
73940;SDS011;62294;48.554;10.202;2022-08-01T15:00:53;3.80;;;2.08;;
73940;SDS011;62294;48.554;10.202;2022-08-01T15:03:25;3.55;;;2.45;;
73940;SDS011;62294;48.554;10.202;2022-08-01T15:05:51;3.90;;;2.05;;
73940;SDS011;62294;48.554;10.202;2022-08-01T15:08:18;2.78;;;2.03;;
73940;SDS011;62294;48.554;10.202;2022-08-01T15:10:44;2.85;;;2.15;;
73940;SDS011;62294;48.554;10.202;2022-08-01T15:13:11;2.42;;;2.22;;
73940;SDS011;62294;48.554;10.202;2022-08-01T15:15:38;3.80;;;2.17;;
73940;SDS011;62294;48.554;10.202;2022-08-01T15:18:04;2.97;;;2.15;;
73940;SDS011;62294;48.554;10.202;2022-08-01T15:20:31;2.63;;;2.20;;
73940;SDS011;62294;48.554;10.202;2022-08-01T15:22:58;4.25;;;2.67;;
73940;SDS011;62294;48.554;10.202;2022-08-01T15:25:25;4.57;;;2.30;;
73940;SDS011;62294;48.554;10.202;2022-08-01T15:28:05;2.72;;;2.22;;
73940;SDS011;62294;48.554;10.202;2022-08-01T15:30:32;3.20;;;2.35;;
73940;SDS011;62294;48.554;10.202;2022-08-01T15:32:59;2.47;;;2.08;;
73940;SDS011;62294;48.554;10.202;2022-08-01T15:35:25;3.78;;;2.08;;
73940;SDS011;62294;48.554;10.202;2022-08-01T15:37:52;2.97;;;2.10;;
73940;SDS011;62294;48.554;10.202;2022-08-01T15:40:19;4.93;;;2.30;;
73940;SDS011;62294;48.554;10.202;2022-08-01T15:42:45;4.00;;;2.33;;
73940;SDS011;62294;48.554;10.202;2022-08-01T15:45:12;4.80;;;2.30;;